sensor_id;sensor_type;location;lat;lon;timestamp;temperature;humidity
19610;DHT22;9952;47.122;-1.638;2022-10-31T00:02:28;12.50;99.90
19610;DHT22;9952;47.122;-1.638;2022-10-31T00:07:09;12.40;99.90
19610;DHT22;9952;47.122;-1.638;2022-10-31T00:11:50;12.40;99.90
19610;DHT22;9952;47.122;-1.638;2022-10-31T00:16:30;12.40;99.90
19610;DHT22;9952;47.122;-1.638;2022-10-31T00:21:11;12.40;99.90
19610;DHT22;9952;47.122;-1.638;2022-10-31T00:25:52;12.40;99.90
19610;DHT22;9952;47.122;-1.638;2022-10-31T00:30:33;12.30;99.90
19610;DHT22;9952;47.122;-1.638;2022-10-31T00:35:14;12.30;99.90
19610;DHT22;9952;47.122;-1.638;2022-10-31T00:39:55;12.20;99.90
19610;DHT22;9952;47.122;-1.638;2022-10-31T00:44:36;12.20;99.90
19610;DHT22;9952;47.122;-1.638;2022-10-31T00:49:16;12.20;99.90
19610;DHT22;9952;47.122;-1.638;2022-10-31T00:53:57;12.20;99.90
19610;DHT22;9952;47.122;-1.638;2022-10-31T00:58:38;12.20;99.90
19610;DHT22;9952;47.122;-1.638;2022-10-31T01:03:19;12.10;99.90
19610;DHT22;9952;47.122;-1.638;2022-10-31T01:07:59;12.10;99.90
19610;DHT22;9952;47.122;-1.638;2022-10-31T01:12:42;12.10;99.90
19610;DHT22;9952;47.122;-1.638;2022-10-31T01:17:23;12.10;99.90
19610;DHT22;9952;47.122;-1.638;2022-10-31T01:22:04;12.00;99.90
19610;DHT22;9952;47.122;-1.638;2022-10-31T01:26:45;12.10;99.90
19610;DHT22;9952;47.122;-1.638;2022-10-31T01:31:32;12.10;99.90
19610;DHT22;9952;47.122;-1.638;2022-10-31T01:36:20;12.00;99.90
19610;DHT22;9952;47.122;-1.638;2022-10-31T01:41:01;12.00;99.90
19610;DHT22;9952;47.122;-1.638;2022-10-31T01:45:44;11.90;99.90
19610;DHT22;9952;47.122;-1.638;2022-10-31T01:50:36;11.90;99.90
19610;DHT22;9952;47.122;-1.638;2022-10-31T01:55:25;11.90;99.90
19610;DHT22;9952;47.122;-1.638;2022-10-31T02:00:09;12.00;99.90
19610;DHT22;9952;47.122;-1.638;2022-10-31T02:04:50;11.90;99.90
19610;DHT22;9952;47.122;-1.638;2022-10-31T02:09:31;11.80;99.90
19610;DHT22;9952;47.122;-1.638;2022-10-31T02:14:14;11.70;99.90
19610;DHT22;9952;47.122;-1.638;2022-10-31T02:18:56;11.60;99.90
19610;DHT22;9952;47.122;-1.638;2022-10-31T02:44:20;11.30;99.90
19610;DHT22;9952;47.122;-1.638;2022-10-31T02:49:11;11.30;99.90
19610;DHT22;9952;47.122;-1.638;2022-10-31T02:53:52;11.30;99.90
19610;DHT22;9952;47.122;-1.638;2022-10-31T02:58:38;11.30;99.90
19610;DHT22;9952;47.122;-1.638;2022-10-31T03:03:41;11.40;99.90
19610;DHT22;9952;47.122;-1.638;2022-10-31T03:08:41;11.40;99.90
19610;DHT22;9952;47.122;-1.638;2022-10-31T03:18:22;11.40;99.90
19610;DHT22;9952;47.122;-1.638;2022-10-31T03:23:10;11.40;99.90
19610;DHT22;9952;47.122;-1.638;2022-10-31T03:27:53;11.50;99.90
19610;DHT22;9952;47.122;-1.638;2022-10-31T03:32:44;11.60;99.90
19610;DHT22;9952;47.122;-1.638;2022-10-31T03:37:27;11.60;99.90
19610;DHT22;9952;47.122;-1.638;2022-10-31T03:42:17;11.80;99.90
19610;DHT22;9952;47.122;-1.638;2022-10-31T03:46:59;11.90;99.90
19610;DHT22;9952;47.122;-1.638;2022-10-31T03:56:37;12.10;99.90
19610;DHT22;9952;47.122;-1.638;2022-10-31T04:01:21;12.10;99.90
19610;DHT22;9952;47.122;-1.638;2022-10-31T04:06:09;12.20;99.90
19610;DHT22;9952;47.122;-1.638;2022-10-31T04:10:52;12.30;99.90
19610;DHT22;9952;47.122;-1.638;2022-10-31T04:15:36;12.30;99.90
19610;DHT22;9952;47.122;-1.638;2022-10-31T04:20:17;12.30;99.90
19610;DHT22;9952;47.122;-1.638;2022-10-31T04:24:58;12.40;99.90
19610;DHT22;9952;47.122;-1.638;2022-10-31T04:29:39;12.50;99.90
19610;DHT22;9952;47.122;-1.638;2022-10-31T04:34:20;12.50;99.90
19610;DHT22;9952;47.122;-1.638;2022-10-31T04:39:01;12.50;99.90
19610;DHT22;9952;47.122;-1.638;2022-10-31T04:43:41;12.50;99.90
19610;DHT22;9952;47.122;-1.638;2022-10-31T04:48:22;12.60;99.90
19610;DHT22;9952;47.122;-1.638;2022-10-31T04:53:03;12.60;99.90
19610;DHT22;9952;47.122;-1.638;2022-10-31T04:57:46;12.50;99.90
19610;DHT22;9952;47.122;-1.638;2022-10-31T05:02:27;12.60;99.90
19610;DHT22;9952;47.122;-1.638;2022-10-31T05:07:08;12.60;99.90
19610;DHT22;9952;47.122;-1.638;2022-10-31T05:11:48;12.60;99.90
19610;DHT22;9952;47.122;-1.638;2022-10-31T05:16:29;12.60;99.90
19610;DHT22;9952;47.122;-1.638;2022-10-31T05:21:10;12.60;99.90
19610;DHT22;9952;47.122;-1.638;2022-10-31T05:25:51;12.60;99.90
19610;DHT22;9952;47.122;-1.638;2022-10-31T05:30:32;12.60;99.90
19610;DHT22;9952;47.122;-1.638;2022-10-31T05:35:18;12.70;99.90
19610;DHT22;9952;47.122;-1.638;2022-10-31T05:39:59;12.70;99.90
19610;DHT22;9952;47.122;-1.638;2022-10-31T05:44:39;12.70;99.90
19610;DHT22;9952;47.122;-1.638;2022-10-31T05:49:20;12.70;99.90
19610;DHT22;9952;47.122;-1.638;2022-10-31T05:54:01;12.80;99.90
19610;DHT22;9952;47.122;-1.638;2022-10-31T05:58:42;12.80;99.90
19610;DHT22;9952;47.122;-1.638;2022-10-31T06:03:22;12.80;99.90
19610;DHT22;9952;47.122;-1.638;2022-10-31T06:08:03;12.80;99.90
19610;DHT22;9952;47.122;-1.638;2022-10-31T06:12:44;12.80;99.90
19610;DHT22;9952;47.122;-1.638;2022-10-31T06:17:25;12.80;99.90
19610;DHT22;9952;47.122;-1.638;2022-10-31T06:22:06;12.80;99.90
19610;DHT22;9952;47.122;-1.638;2022-10-31T06:26:46;12.80;99.90
19610;DHT22;9952;47.122;-1.638;2022-10-31T06:31:27;12.90;99.90
19610;DHT22;9952;47.122;-1.638;2022-10-31T06:36:08;12.90;99.90
19610;DHT22;9952;47.122;-1.638;2022-10-31T06:40:49;12.90;99.90
19610;DHT22;9952;47.122;-1.638;2022-10-31T06:45:30;13.00;99.90
19610;DHT22;9952;47.122;-1.638;2022-10-31T06:50:11;13.00;99.90
19610;DHT22;9952;47.122;-1.638;2022-10-31T06:54:52;13.00;99.90
19610;DHT22;9952;47.122;-1.638;2022-10-31T06:59:32;13.00;99.90
19610;DHT22;9952;47.122;-1.638;2022-10-31T07:04:13;13.10;99.90
19610;DHT22;9952;47.122;-1.638;2022-10-31T07:08:54;13.00;99.90
19610;DHT22;9952;47.122;-1.638;2022-10-31T07:13:35;13.10;99.90
19610;DHT22;9952;47.122;-1.638;2022-10-31T07:18:15;13.10;99.90
19610;DHT22;9952;47.122;-1.638;2022-10-31T07:22:57;13.20;99.90
19610;DHT22;9952;47.122;-1.638;2022-10-31T07:27:38;13.20;99.90
19610;DHT22;9952;47.122;-1.638;2022-10-31T07:32:19;13.20;99.90
19610;DHT22;9952;47.122;-1.638;2022-10-31T07:37:00;13.20;99.90
19610;DHT22;9952;47.122;-1.638;2022-10-31T07:41:41;13.30;99.90
19610;DHT22;9952;47.122;-1.638;2022-10-31T07:46:22;13.30;99.90
19610;DHT22;9952;47.122;-1.638;2022-10-31T07:51:03;13.40;99.90
19610;DHT22;9952;47.122;-1.638;2022-10-31T07:55:44;13.40;99.90
19610;DHT22;9952;47.122;-1.638;2022-10-31T08:00:25;13.50;99.90
19610;DHT22;9952;47.122;-1.638;2022-10-31T08:05:06;13.60;99.90
19610;DHT22;9952;47.122;-1.638;2022-10-31T08:09:47;13.60;99.90
19610;DHT22;9952;47.122;-1.638;2022-10-31T08:14:28;13.70;99.90
19610;DHT22;9952;47.122;-1.638;2022-10-31T08:19:08;13.80;99.90
19610;DHT22;9952;47.122;-1.638;2022-10-31T08:23:49;13.90;99.90
19610;DHT22;9952;47.122;-1.638;2022-10-31T08:28:30;14.10;99.90
19610;DHT22;9952;47.122;-1.638;2022-10-31T08:33:12;14.20;99.90
19610;DHT22;9952;47.122;-1.638;2022-10-31T08:37:56;14.40;99.90
19610;DHT22;9952;47.122;-1.638;2022-10-31T08:42:40;14.70;99.90
19610;DHT22;9952;47.122;-1.638;2022-10-31T08:47:22;15.00;99.90
19610;DHT22;9952;47.122;-1.638;2022-10-31T08:52:02;15.30;99.90
19610;DHT22;9952;47.122;-1.638;2022-10-31T08:56:43;15.60;99.90
19610;DHT22;9952;47.122;-1.638;2022-10-31T09:01:24;15.90;99.90
19610;DHT22;9952;47.122;-1.638;2022-10-31T09:06:05;16.10;99.90
19610;DHT22;9952;47.122;-1.638;2022-10-31T09:10:49;16.30;99.90
19610;DHT22;9952;47.122;-1.638;2022-10-31T09:15:30;16.50;99.90
19610;DHT22;9952;47.122;-1.638;2022-10-31T09:20:11;16.70;99.90
19610;DHT22;9952;47.122;-1.638;2022-10-31T09:24:52;16.80;99.90
19610;DHT22;9952;47.122;-1.638;2022-10-31T09:29:33;17.00;99.90
19610;DHT22;9952;47.122;-1.638;2022-10-31T09:34:14;17.20;99.90
19610;DHT22;9952;47.122;-1.638;2022-10-31T09:38:55;17.40;99.90
19610;DHT22;9952;47.122;-1.638;2022-10-31T09:58:34;17.50;99.90
19610;DHT22;9952;47.122;-1.638;2022-10-31T10:03:38;17.50;99.90
19610;DHT22;9952;47.122;-1.638;2022-10-31T10:08:23;17.80;99.90
19610;DHT22;9952;47.122;-1.638;2022-10-31T10:18:28;18.30;99.90
19610;DHT22;9952;47.122;-1.638;2022-10-31T10:23:41;18.60;99.90
19610;DHT22;9952;47.122;-1.638;2022-10-31T10:28:34;18.50;99.90
19610;DHT22;9952;47.122;-1.638;2022-10-31T10:33:22;18.20;99.90
19610;DHT22;9952;47.122;-1.638;2022-10-31T10:43:38;18.10;99.90
19610;DHT22;9952;47.122;-1.638;2022-10-31T10:58:29;18.30;99.90
19610;DHT22;9952;47.122;-1.638;2022-10-31T11:03:10;18.30;99.90
19610;DHT22;9952;47.122;-1.638;2022-10-31T11:07:51;18.30;99.90
19610;DHT22;9952;47.122;-1.638;2022-10-31T11:12:33;18.30;99.90
19610;DHT22;9952;47.122;-1.638;2022-10-31T11:17:30;18.40;99.90
19610;DHT22;9952;47.122;-1.638;2022-10-31T11:22:17;18.40;99.90
19610;DHT22;9952;47.122;-1.638;2022-10-31T11:27:21;18.50;99.90
19610;DHT22;9952;47.122;-1.638;2022-10-31T11:32:02;18.60;99.90
19610;DHT22;9952;47.122;-1.638;2022-10-31T11:36:44;18.70;99.90
19610;DHT22;9952;47.122;-1.638;2022-10-31T11:41:33;18.80;99.90
19610;DHT22;9952;47.122;-1.638;2022-10-31T11:46:26;18.90;99.90
19610;DHT22;9952;47.122;-1.638;2022-10-31T11:51:10;18.90;99.90
19610;DHT22;9952;47.122;-1.638;2022-10-31T11:56:12;19.00;99.90
19610;DHT22;9952;47.122;-1.638;2022-10-31T12:00:55;19.10;99.90
19610;DHT22;9952;47.122;-1.638;2022-10-31T12:05:38;19.10;99.90
19610;DHT22;9952;47.122;-1.638;2022-10-31T12:10:22;19.20;99.90
19610;DHT22;9952;47.122;-1.638;2022-10-31T12:25:15;19.20;99.90
19610;DHT22;9952;47.122;-1.638;2022-10-31T12:30:20;19.20;99.90
19610;DHT22;9952;47.122;-1.638;2022-10-31T12:50:47;19.20;99.90
19610;DHT22;9952;47.122;-1.638;2022-10-31T13:00:22;19.10;99.90
19610;DHT22;9952;47.122;-1.638;2022-10-31T13:05:36;19.00;99.90
19610;DHT22;9952;47.122;-1.638;2022-10-31T13:10:32;19.00;99.90
19610;DHT22;9952;47.122;-1.638;2022-10-31T13:15:18;19.00;99.90
19610;DHT22;9952;47.122;-1.638;2022-10-31T13:25:16;19.00;99.90
19610;DHT22;9952;47.122;-1.638;2022-10-31T13:30:06;19.00;99.90
19610;DHT22;9952;47.122;-1.638;2022-10-31T13:34:55;19.00;99.90
19610;DHT22;9952;47.122;-1.638;2022-10-31T13:44:36;19.00;99.90
19610;DHT22;9952;47.122;-1.638;2022-10-31T13:54:23;18.90;99.90
19610;DHT22;9952;47.122;-1.638;2022-10-31T13:59:16;19.00;99.90
19610;DHT22;9952;47.122;-1.638;2022-10-31T14:04:21;19.00;99.90
19610;DHT22;9952;47.122;-1.638;2022-10-31T14:09:03;18.90;99.90
19610;DHT22;9952;47.122;-1.638;2022-10-31T14:13:45;19.00;99.90
19610;DHT22;9952;47.122;-1.638;2022-10-31T14:18:33;19.00;99.90
19610;DHT22;9952;47.122;-1.638;2022-10-31T14:23:37;19.10;99.90
19610;DHT22;9952;47.122;-1.638;2022-10-31T14:28:32;19.20;99.90
19610;DHT22;9952;47.122;-1.638;2022-10-31T14:33:18;19.00;99.90
19610;DHT22;9952;47.122;-1.638;2022-10-31T14:38:09;18.80;99.90
19610;DHT22;9952;47.122;-1.638;2022-10-31T14:43:09;18.70;99.90
19610;DHT22;9952;47.122;-1.638;2022-10-31T14:52:39;18.50;99.90
19610;DHT22;9952;47.122;-1.638;2022-10-31T14:57:31;18.20;99.90
19610;DHT22;9952;47.122;-1.638;2022-10-31T15:02:34;18.10;99.90
19610;DHT22;9952;47.122;-1.638;2022-10-31T15:07:23;18.00;99.90
19610;DHT22;9952;47.122;-1.638;2022-10-31T15:17:03;17.60;99.90
19610;DHT22;9952;47.122;-1.638;2022-10-31T15:21:45;17.40;99.90
19610;DHT22;9952;47.122;-1.638;2022-10-31T15:26:31;17.30;99.90
19610;DHT22;9952;47.122;-1.638;2022-10-31T15:31:16;17.30;99.90
19610;DHT22;9952;47.122;-1.638;2022-10-31T15:35:59;17.30;99.90
19610;DHT22;9952;47.122;-1.638;2022-10-31T15:40:52;17.20;99.90
19610;DHT22;9952;47.122;-1.638;2022-10-31T15:45:35;17.20;99.90
19610;DHT22;9952;47.122;-1.638;2022-10-31T15:50:22;17.20;99.90
19610;DHT22;9952;47.122;-1.638;2022-10-31T15:59:52;17.20;99.90
19610;DHT22;9952;47.122;-1.638;2022-10-31T16:04:33;17.10;99.90
19610;DHT22;9952;47.122;-1.638;2022-10-31T16:09:23;17.10;99.90
19610;DHT22;9952;47.122;-1.638;2022-10-31T16:14:14;17.10;99.90
19610;DHT22;9952;47.122;-1.638;2022-10-31T16:18:56;17.10;99.90
19610;DHT22;9952;47.122;-1.638;2022-10-31T16:23:39;17.20;99.90
19610;DHT22;9952;47.122;-1.638;2022-10-31T16:28:26;17.30;99.90
19610;DHT22;9952;47.122;-1.638;2022-10-31T16:33:40;17.40;99.90
19610;DHT22;9952;47.122;-1.638;2022-10-31T16:38:21;17.30;99.90
19610;DHT22;9952;47.122;-1.638;2022-10-31T16:43:02;17.40;99.90
19610;DHT22;9952;47.122;-1.638;2022-10-31T16:47:42;17.60;99.90
19610;DHT22;9952;47.122;-1.638;2022-10-31T16:52:23;17.60;99.90
19610;DHT22;9952;47.122;-1.638;2022-10-31T16:57:05;17.80;99.90
19610;DHT22;9952;47.122;-1.638;2022-10-31T17:01:48;17.90;99.90
19610;DHT22;9952;47.122;-1.638;2022-10-31T17:06:29;18.20;99.90
19610;DHT22;9952;47.122;-1.638;2022-10-31T17:11:23;18.30;99.90
19610;DHT22;9952;47.122;-1.638;2022-10-31T17:16:05;18.40;99.90
19610;DHT22;9952;47.122;-1.638;2022-10-31T17:20:46;18.40;99.90
19610;DHT22;9952;47.122;-1.638;2022-10-31T17:25:29;18.30;99.90
19610;DHT22;9952;47.122;-1.638;2022-10-31T17:30:13;18.20;99.90
19610;DHT22;9952;47.122;-1.638;2022-10-31T17:34:54;18.10;99.90
19610;DHT22;9952;47.122;-1.638;2022-10-31T17:39:34;18.00;99.90
19610;DHT22;9952;47.122;-1.638;2022-10-31T17:44:15;17.90;99.90
19610;DHT22;9952;47.122;-1.638;2022-10-31T17:48:57;17.70;99.90
19610;DHT22;9952;47.122;-1.638;2022-10-31T17:53:39;17.60;99.90
19610;DHT22;9952;47.122;-1.638;2022-10-31T17:58:20;17.40;99.90
19610;DHT22;9952;47.122;-1.638;2022-10-31T18:03:02;17.30;99.90
19610;DHT22;9952;47.122;-1.638;2022-10-31T18:07:43;17.20;99.90
19610;DHT22;9952;47.122;-1.638;2022-10-31T18:12:25;17.10;99.90
19610;DHT22;9952;47.122;-1.638;2022-10-31T18:17:08;17.00;99.90
19610;DHT22;9952;47.122;-1.638;2022-10-31T18:21:48;17.00;99.90
19610;DHT22;9952;47.122;-1.638;2022-10-31T18:26:29;16.90;99.90
19610;DHT22;9952;47.122;-1.638;2022-10-31T18:31:10;16.80;99.90
19610;DHT22;9952;47.122;-1.638;2022-10-31T18:35:51;16.70;99.90
19610;DHT22;9952;47.122;-1.638;2022-10-31T18:40:33;16.70;99.90
19610;DHT22;9952;47.122;-1.638;2022-10-31T18:45:14;16.70;99.90
19610;DHT22;9952;47.122;-1.638;2022-10-31T18:49:55;16.60;99.90
19610;DHT22;9952;47.122;-1.638;2022-10-31T18:54:36;16.60;99.90
19610;DHT22;9952;47.122;-1.638;2022-10-31T18:59:17;16.60;99.90
19610;DHT22;9952;47.122;-1.638;2022-10-31T19:03:58;16.60;99.90
19610;DHT22;9952;47.122;-1.638;2022-10-31T19:08:39;16.50;99.90
19610;DHT22;9952;47.122;-1.638;2022-10-31T19:13:20;16.30;99.90
19610;DHT22;9952;47.122;-1.638;2022-10-31T19:18:01;16.20;99.90
19610;DHT22;9952;47.122;-1.638;2022-10-31T19:22:42;16.20;99.90
19610;DHT22;9952;47.122;-1.638;2022-10-31T19:27:23;16.20;99.90
19610;DHT22;9952;47.122;-1.638;2022-10-31T19:32:07;16.10;99.90
19610;DHT22;9952;47.122;-1.638;2022-10-31T19:36:48;16.00;99.90
19610;DHT22;9952;47.122;-1.638;2022-10-31T19:41:29;16.00;99.90
19610;DHT22;9952;47.122;-1.638;2022-10-31T19:46:12;15.80;99.90
19610;DHT22;9952;47.122;-1.638;2022-10-31T19:51:03;15.80;99.90
19610;DHT22;9952;47.122;-1.638;2022-10-31T19:55:44;15.80;99.90
19610;DHT22;9952;47.122;-1.638;2022-10-31T20:00:25;15.80;99.90
19610;DHT22;9952;47.122;-1.638;2022-10-31T20:05:06;15.70;99.90
19610;DHT22;9952;47.122;-1.638;2022-10-31T20:09:47;15.80;99.90
19610;DHT22;9952;47.122;-1.638;2022-10-31T20:14:28;15.70;99.90
19610;DHT22;9952;47.122;-1.638;2022-10-31T20:19:09;15.60;99.90
19610;DHT22;9952;47.122;-1.638;2022-10-31T20:23:54;15.60;99.90
19610;DHT22;9952;47.122;-1.638;2022-10-31T20:28:36;15.70;99.90
19610;DHT22;9952;47.122;-1.638;2022-10-31T20:33:17;15.60;99.90
19610;DHT22;9952;47.122;-1.638;2022-10-31T20:37:57;15.60;99.90
19610;DHT22;9952;47.122;-1.638;2022-10-31T20:42:38;15.50;99.90
19610;DHT22;9952;47.122;-1.638;2022-10-31T20:47:19;15.50;99.90
19610;DHT22;9952;47.122;-1.638;2022-10-31T20:52:00;15.40;99.90
19610;DHT22;9952;47.122;-1.638;2022-10-31T20:56:41;15.30;99.90
19610;DHT22;9952;47.122;-1.638;2022-10-31T21:01:30;15.20;99.90
19610;DHT22;9952;47.122;-1.638;2022-10-31T21:06:13;15.20;99.90
19610;DHT22;9952;47.122;-1.638;2022-10-31T21:10:54;15.10;99.90
19610;DHT22;9952;47.122;-1.638;2022-10-31T21:15:35;15.10;99.90
19610;DHT22;9952;47.122;-1.638;2022-10-31T21:20:16;15.00;99.90
19610;DHT22;9952;47.122;-1.638;2022-10-31T21:24:57;14.90;99.90
19610;DHT22;9952;47.122;-1.638;2022-10-31T21:29:37;14.80;99.90
19610;DHT22;9952;47.122;-1.638;2022-10-31T21:34:18;14.80;99.90
19610;DHT22;9952;47.122;-1.638;2022-10-31T21:38:59;14.70;99.90
19610;DHT22;9952;47.122;-1.638;2022-10-31T21:43:42;14.80;99.90
19610;DHT22;9952;47.122;-1.638;2022-10-31T21:48:23;14.90;99.90
19610;DHT22;9952;47.122;-1.638;2022-10-31T21:53:08;14.90;99.90
19610;DHT22;9952;47.122;-1.638;2022-10-31T21:58:07;14.90;99.90
19610;DHT22;9952;47.122;-1.638;2022-10-31T22:02:48;14.80;99.90
19610;DHT22;9952;47.122;-1.638;2022-10-31T22:07:30;14.70;99.90
19610;DHT22;9952;47.122;-1.638;2022-10-31T22:12:14;14.70;99.90
19610;DHT22;9952;47.122;-1.638;2022-10-31T22:16:55;14.70;99.90
19610;DHT22;9952;47.122;-1.638;2022-10-31T22:21:39;14.50;99.90
19610;DHT22;9952;47.122;-1.638;2022-10-31T22:26:21;14.40;99.90
19610;DHT22;9952;47.122;-1.638;2022-10-31T22:31:05;14.40;99.90
19610;DHT22;9952;47.122;-1.638;2022-10-31T22:35:46;14.30;99.90
19610;DHT22;9952;47.122;-1.638;2022-10-31T22:40:27;14.30;99.90
19610;DHT22;9952;47.122;-1.638;2022-10-31T22:45:08;14.30;99.90
19610;DHT22;9952;47.122;-1.638;2022-10-31T22:49:50;14.20;99.90
19610;DHT22;9952;47.122;-1.638;2022-10-31T22:54:31;14.20;99.90
19610;DHT22;9952;47.122;-1.638;2022-10-31T22:59:13;14.20;99.90
19610;DHT22;9952;47.122;-1.638;2022-10-31T23:03:54;14.10;99.90
19610;DHT22;9952;47.122;-1.638;2022-10-31T23:08:36;14.10;99.90
19610;DHT22;9952;47.122;-1.638;2022-10-31T23:13:18;14.10;99.90
19610;DHT22;9952;47.122;-1.638;2022-10-31T23:18:17;14.00;99.90
19610;DHT22;9952;47.122;-1.638;2022-10-31T23:22:58;14.00;99.90
19610;DHT22;9952;47.122;-1.638;2022-10-31T23:27:38;13.90;99.90
19610;DHT22;9952;47.122;-1.638;2022-10-31T23:32:24;13.90;99.90
19610;DHT22;9952;47.122;-1.638;2022-10-31T23:37:05;13.80;99.90
19610;DHT22;9952;47.122;-1.638;2022-10-31T23:41:46;13.80;99.90
19610;DHT22;9952;47.122;-1.638;2022-10-31T23:46:27;13.80;99.90
19610;DHT22;9952;47.122;-1.638;2022-10-31T23:51:08;13.70;99.90
19610;DHT22;9952;47.122;-1.638;2022-10-31T23:55:49;13.70;99.90
